createdAt,value
2018-08-13T00:00:22.627Z,982.18
2018-08-13T00:01:22.318Z,982.17
2018-08-13T00:02:22.500Z,982.14
2018-08-13T00:03:22.673Z,982.13
2018-08-13T00:04:22.844Z,982.13
2018-08-13T00:05:23.015Z,982.13
2018-08-13T00:06:23.188Z,982.10
2018-08-13T00:07:23.357Z,982.10
2018-08-13T00:08:23.544Z,982.08
2018-08-13T00:09:23.700Z,982.09
2018-08-13T00:10:23.901Z,982.09
2018-08-13T00:11:24.061Z,982.06
2018-08-13T00:12:24.229Z,982.04
2018-08-13T00:13:24.398Z,982.03
2018-08-13T00:14:24.568Z,982.00
2018-08-13T00:15:24.781Z,981.99
2018-08-13T00:16:24.918Z,981.97
2018-08-13T00:17:25.130Z,981.94
2018-08-13T00:18:25.262Z,981.96
2018-08-13T00:19:25.462Z,981.91
2018-08-13T00:20:25.608Z,981.92
2018-08-13T00:21:25.779Z,981.88
2018-08-13T00:22:25.951Z,981.86
2018-08-13T00:23:26.125Z,981.85
2018-08-13T00:24:26.289Z,981.89
2018-08-13T00:25:26.466Z,981.86
2018-08-13T00:26:26.634Z,981.89
2018-08-13T00:27:26.796Z,981.88
2018-08-13T00:28:26.968Z,981.87
2018-08-13T00:29:27.138Z,981.88
2018-08-13T00:30:27.307Z,981.88
2018-08-13T00:31:27.479Z,981.89
2018-08-13T00:32:27.654Z,981.90
2018-08-13T00:33:27.827Z,981.89
2018-08-13T00:34:27.997Z,981.91
2018-08-13T00:35:28.173Z,981.89
2018-08-13T00:36:28.342Z,981.93
2018-08-13T00:37:28.517Z,981.95
2018-08-13T00:38:28.691Z,981.95
2018-08-13T00:39:28.869Z,981.96
2018-08-13T00:40:29.039Z,981.95
2018-08-13T00:41:29.211Z,981.95
2018-08-13T00:42:29.416Z,981.91
2018-08-13T00:43:29.561Z,981.89
2018-08-13T00:44:29.721Z,981.89
2018-08-13T00:45:29.890Z,981.86
2018-08-13T00:46:30.061Z,981.88
2018-08-13T00:47:30.230Z,981.83
2018-08-13T00:48:30.404Z,981.85
2018-08-13T00:49:30.572Z,981.81
2018-08-13T00:50:30.744Z,981.81
2018-08-13T00:51:30.919Z,981.81
2018-08-13T00:52:31.097Z,981.83
2018-08-13T00:53:31.273Z,981.77
2018-08-13T00:54:31.439Z,981.76
2018-08-13T00:55:31.609Z,981.77
2018-08-13T00:56:31.779Z,981.73
2018-08-13T00:57:31.949Z,981.76
2018-08-13T00:58:32.122Z,981.72
2018-08-13T00:59:32.296Z,981.71
2018-08-13T01:00:32.473Z,981.70
2018-08-13T01:01:32.645Z,981.65
2018-08-13T01:02:32.820Z,981.64
2018-08-13T01:03:32.984Z,981.63
2018-08-13T01:04:33.160Z,981.62
2018-08-13T01:05:33.330Z,981.62
2018-08-13T01:06:33.517Z,981.56
2018-08-13T01:07:33.692Z,981.58
2018-08-13T01:08:33.868Z,981.56
2018-08-13T01:09:34.038Z,981.55
2018-08-13T01:10:34.210Z,981.53
2018-08-13T01:11:34.380Z,981.48
2018-08-13T01:12:34.552Z,981.47
2018-08-13T01:13:34.732Z,981.48
2018-08-13T01:14:34.912Z,981.45
2018-08-13T01:15:35.082Z,981.46
2018-08-13T01:16:35.229Z,981.43
2018-08-13T01:17:35.402Z,981.43
2018-08-13T01:18:35.566Z,981.41
2018-08-13T01:19:35.743Z,981.39
2018-08-13T01:20:35.910Z,981.34
2018-08-13T01:21:36.080Z,981.37
2018-08-13T01:22:36.248Z,981.32
2018-08-13T01:23:36.424Z,981.31
2018-08-13T01:24:36.601Z,981.32
2018-08-13T01:25:36.770Z,981.32
2018-08-13T01:26:36.937Z,981.31
2018-08-13T01:27:37.118Z,981.31
2018-08-13T01:28:37.290Z,981.31
2018-08-13T01:29:37.464Z,981.29
2018-08-13T01:30:37.627Z,981.28
2018-08-13T01:31:37.804Z,981.30
2018-08-13T01:32:37.971Z,981.27
2018-08-13T01:33:38.137Z,981.28
2018-08-13T01:34:38.311Z,981.29
2018-08-13T01:35:38.486Z,981.31
2018-08-13T01:36:38.656Z,981.29
2018-08-13T01:37:38.820Z,981.28
2018-08-13T01:38:38.996Z,981.25
2018-08-13T01:39:39.174Z,981.24
2018-08-13T01:40:39.338Z,981.24
2018-08-13T01:41:39.521Z,981.25
2018-08-13T01:42:39.693Z,981.27
2018-08-13T01:43:39.863Z,981.23
2018-08-13T01:44:40.029Z,981.25
2018-08-13T01:45:40.199Z,981.25
2018-08-13T01:46:40.370Z,981.24
2018-08-13T01:47:40.541Z,981.21
2018-08-13T01:48:40.710Z,981.21
2018-08-13T01:49:40.883Z,981.20
2018-08-13T01:50:41.050Z,981.20
2018-08-13T01:51:41.218Z,981.20
2018-08-13T01:52:41.387Z,981.19
2018-08-13T01:53:41.556Z,981.21
2018-08-13T01:54:41.728Z,981.21
2018-08-13T01:55:41.894Z,981.22
2018-08-13T01:56:42.067Z,981.23
2018-08-13T01:57:42.240Z,981.25
2018-08-13T01:58:42.410Z,981.20
2018-08-13T01:59:42.577Z,981.25
2018-08-13T02:00:42.750Z,981.20
2018-08-13T02:01:42.948Z,981.22
2018-08-13T02:02:43.084Z,981.23
2018-08-13T02:03:43.252Z,981.24
2018-08-13T02:04:43.428Z,981.21
2018-08-13T02:05:43.597Z,981.19
2018-08-13T02:06:43.770Z,981.20
2018-08-13T02:07:43.939Z,981.17
2018-08-13T02:08:44.109Z,981.18
2018-08-13T02:09:44.279Z,981.13
2018-08-13T02:10:44.446Z,981.10
2018-08-13T02:11:44.614Z,981.09
2018-08-13T02:12:44.792Z,981.07
2018-08-13T02:13:44.970Z,981.05
2018-08-13T02:14:45.135Z,981.00
2018-08-13T02:15:45.300Z,981.00
2018-08-13T02:16:45.469Z,980.99
2018-08-13T02:17:45.643Z,980.96
2018-08-13T02:18:45.832Z,980.97
2018-08-13T02:19:45.989Z,980.97
2018-08-13T02:20:46.154Z,980.97
2018-08-13T02:21:46.314Z,980.94
2018-08-13T02:22:46.483Z,980.92
2018-08-13T02:23:46.658Z,980.92
2018-08-13T02:24:46.833Z,980.93
2018-08-13T02:25:47.000Z,980.91
2018-08-13T02:26:47.165Z,980.89
2018-08-13T02:27:47.336Z,980.87
2018-08-13T02:28:47.510Z,980.86
2018-08-13T02:29:47.680Z,980.88
2018-08-13T02:30:47.849Z,980.87
2018-08-13T02:31:48.018Z,980.84
2018-08-13T02:32:48.189Z,980.86
2018-08-13T02:33:48.365Z,980.87
2018-08-13T02:34:48.534Z,980.86
2018-08-13T02:35:48.697Z,980.87
2018-08-13T02:36:48.862Z,980.86
2018-08-13T02:37:49.032Z,980.86
2018-08-13T02:38:49.201Z,980.86
2018-08-13T02:39:49.382Z,980.83
2018-08-13T02:40:49.550Z,980.87
2018-08-13T02:41:49.725Z,980.84
2018-08-13T02:42:49.891Z,980.89
2018-08-13T02:43:50.063Z,980.88
2018-08-13T02:44:50.232Z,980.91
2018-08-13T02:45:50.408Z,980.89
2018-08-13T02:46:50.581Z,980.90
2018-08-13T02:47:50.752Z,980.90
2018-08-13T02:48:50.926Z,980.89
2018-08-13T02:49:51.091Z,980.88
2018-08-13T02:50:51.266Z,980.90
2018-08-13T02:51:51.443Z,980.88
2018-08-13T02:52:51.619Z,980.89
2018-08-13T02:53:51.784Z,980.89
2018-08-13T02:54:51.952Z,980.88
2018-08-13T02:55:52.119Z,980.88
2018-08-13T02:56:52.281Z,980.85
2018-08-13T02:57:52.449Z,980.87
2018-08-13T02:58:52.623Z,980.83
2018-08-13T02:59:52.791Z,980.78
2018-08-13T03:00:52.960Z,980.78
2018-08-13T03:01:53.121Z,980.78
2018-08-13T03:02:53.294Z,980.75
2018-08-13T03:03:53.466Z,980.76
2018-08-13T03:04:53.644Z,980.73
2018-08-13T03:05:53.802Z,980.73
2018-08-13T03:06:53.975Z,980.74
2018-08-13T03:07:54.143Z,980.72
2018-08-13T03:08:54.314Z,980.71
2018-08-13T03:09:54.484Z,980.70
2018-08-13T03:10:54.653Z,980.77
2018-08-13T03:11:54.820Z,980.75
2018-08-13T03:12:54.995Z,980.76
2018-08-13T03:13:55.168Z,980.80
2018-08-13T03:14:55.334Z,980.81
2018-08-13T03:15:55.509Z,980.80
2018-08-13T03:16:55.678Z,980.79
2018-08-13T03:17:55.845Z,980.78
2018-08-13T03:18:56.017Z,980.78
2018-08-13T03:19:56.188Z,980.79
2018-08-13T03:20:56.367Z,980.81
2018-08-13T03:21:56.532Z,980.79
2018-08-13T03:22:56.706Z,980.80
2018-08-13T03:23:56.862Z,980.79
2018-08-13T03:24:57.042Z,980.82
2018-08-13T03:25:57.208Z,980.84
2018-08-13T03:26:57.380Z,980.85
2018-08-13T03:27:57.549Z,980.87
2018-08-13T03:28:57.718Z,980.87
2018-08-13T03:29:57.892Z,980.86
2018-08-13T03:30:58.064Z,980.87
2018-08-13T03:31:58.234Z,980.93
2018-08-13T03:32:58.401Z,980.89
2018-08-13T03:33:58.570Z,980.89
2018-08-13T03:34:58.739Z,980.89
2018-08-13T03:35:58.905Z,980.90
2018-08-13T03:36:59.083Z,980.87
2018-08-13T03:37:59.256Z,980.92
2018-08-13T03:38:59.428Z,980.95
2018-08-13T03:39:59.596Z,980.97
2018-08-13T03:40:59.768Z,980.94
2018-08-13T03:41:59.936Z,980.97
2018-08-13T03:43:00.107Z,980.96
2018-08-13T03:44:00.288Z,980.95
2018-08-13T03:45:00.467Z,980.99
2018-08-13T03:46:00.634Z,980.94
2018-08-13T03:47:00.806Z,980.94
2018-08-13T03:48:00.975Z,980.92
2018-08-13T03:49:01.148Z,980.92
2018-08-13T03:50:01.321Z,980.90
2018-08-13T03:51:01.489Z,980.88
2018-08-13T03:52:01.662Z,980.86
2018-08-13T03:53:01.829Z,980.92
2018-08-13T03:54:02.004Z,980.87
2018-08-13T03:55:02.169Z,980.86
2018-08-13T03:56:02.338Z,980.86
2018-08-13T03:57:02.504Z,980.79
2018-08-13T03:58:02.679Z,980.78
2018-08-13T03:59:03.215Z,980.75
2018-08-13T04:00:03.442Z,980.73
2018-08-13T04:01:03.666Z,980.69
2018-08-13T04:02:03.684Z,980.72
2018-08-13T04:03:03.823Z,980.70
2018-08-13T04:04:03.958Z,980.69
2018-08-13T04:05:04.094Z,980.65
2018-08-13T04:06:04.280Z,980.66
2018-08-13T04:07:04.446Z,980.63
2018-08-13T04:08:04.619Z,980.64
2018-08-13T04:09:04.393Z,980.60
2018-08-13T04:10:04.567Z,980.60
2018-08-13T04:11:04.763Z,980.62
2018-08-13T04:12:04.934Z,980.63
2018-08-13T04:13:05.109Z,980.65
2018-08-13T04:14:05.282Z,980.67
2018-08-13T04:15:05.458Z,980.70
2018-08-13T04:16:05.650Z,980.68
2018-08-13T04:17:05.810Z,980.70
2018-08-13T04:18:05.992Z,980.65
2018-08-13T04:19:06.153Z,980.65
2018-08-13T04:20:06.328Z,980.68
2018-08-13T04:21:06.496Z,980.60
2018-08-13T04:22:06.666Z,980.60
2018-08-13T04:23:06.835Z,980.62
2018-08-13T04:24:07.004Z,980.63
2018-08-13T04:25:07.181Z,980.62
2018-08-13T04:26:07.353Z,980.64
2018-08-13T04:27:07.523Z,980.64
2018-08-13T04:28:07.696Z,980.69
2018-08-13T04:29:07.869Z,980.61
2018-08-13T04:30:08.052Z,980.58
2018-08-13T04:31:08.243Z,980.54
2018-08-13T04:32:08.387Z,980.54
2018-08-13T04:33:08.559Z,980.53
2018-08-13T04:34:08.727Z,980.49
2018-08-13T04:35:08.900Z,980.47
2018-08-13T04:36:09.074Z,980.46
2018-08-13T04:37:09.244Z,980.47
2018-08-13T04:38:09.410Z,980.46
2018-08-13T04:39:09.568Z,980.44
2018-08-13T04:40:09.746Z,980.42
2018-08-13T04:41:09.910Z,980.43
2018-08-13T04:42:10.081Z,980.36
2018-08-13T04:43:10.256Z,980.37
2018-08-13T04:44:10.439Z,980.34
2018-08-13T04:45:10.608Z,980.33
2018-08-13T04:46:10.799Z,980.36
2018-08-13T04:47:10.949Z,980.34
2018-08-13T04:48:11.126Z,980.35
2018-08-13T04:49:11.297Z,980.34
2018-08-13T04:50:11.468Z,980.30
2018-08-13T04:51:11.632Z,980.30
2018-08-13T04:52:11.832Z,980.27
2018-08-13T04:53:11.972Z,980.23
2018-08-13T04:54:12.152Z,980.18
2018-08-13T04:55:12.328Z,980.17
2018-08-13T04:56:12.497Z,980.19
2018-08-13T04:57:12.665Z,980.17
2018-08-13T04:58:12.834Z,980.16
2018-08-13T04:59:13.017Z,980.11
2018-08-13T05:00:13.250Z,980.09
2018-08-13T05:01:13.379Z,980.09
2018-08-13T05:02:13.555Z,980.08
2018-08-13T05:03:13.727Z,980.06
2018-08-13T05:04:13.917Z,980.09
2018-08-13T05:05:14.067Z,980.09
2018-08-13T05:06:14.234Z,980.13
2018-08-13T05:07:14.445Z,980.14
2018-08-13T05:08:14.580Z,980.14
2018-08-13T05:09:14.747Z,980.17
2018-08-13T05:10:14.922Z,980.17
2018-08-13T05:11:15.099Z,980.25
2018-08-13T05:12:15.258Z,980.24
2018-08-13T05:13:15.427Z,980.23
2018-08-13T05:14:15.602Z,980.19
2018-08-13T05:15:15.768Z,980.16
2018-08-13T05:16:15.942Z,980.10
2018-08-13T05:17:16.115Z,980.13
2018-08-13T05:18:16.277Z,980.14
2018-08-13T05:19:16.461Z,980.15
2018-08-13T05:20:16.627Z,980.16
2018-08-13T05:21:16.811Z,980.16
2018-08-13T05:22:16.962Z,980.18
2018-08-13T05:23:17.143Z,980.18
2018-08-13T05:24:17.300Z,980.25
2018-08-13T05:25:17.470Z,980.18
2018-08-13T05:26:17.644Z,980.18
2018-08-13T05:27:17.819Z,980.18
2018-08-13T05:28:17.995Z,980.16
2018-08-13T05:29:18.161Z,980.09
2018-08-13T05:30:18.346Z,980.05
2018-08-13T05:31:18.496Z,980.04
2018-08-13T05:32:18.678Z,980.07
2018-08-13T05:33:18.841Z,980.13
2018-08-13T05:34:19.012Z,980.09
2018-08-13T05:35:19.179Z,980.14
2018-08-13T05:36:19.344Z,980.15
2018-08-13T05:37:19.538Z,980.11
2018-08-13T05:38:19.771Z,980.10
2018-08-13T05:39:19.890Z,980.11
2018-08-13T05:40:20.058Z,980.06
2018-08-13T05:41:20.229Z,980.08
2018-08-13T05:42:20.431Z,980.08
2018-08-13T05:43:20.572Z,980.02
2018-08-13T05:44:20.747Z,980.06
2018-08-13T05:45:20.914Z,980.03
2018-08-13T05:46:21.073Z,980.01
2018-08-13T05:47:21.249Z,980.04
2018-08-13T05:48:21.440Z,980.02
2018-08-13T05:49:21.588Z,979.99
2018-08-13T05:50:21.757Z,979.99
2018-08-13T05:51:21.920Z,979.97
2018-08-13T05:52:22.108Z,979.97
2018-08-13T05:53:22.276Z,979.94
2018-08-13T05:54:22.436Z,979.91
2018-08-13T05:55:22.627Z,979.89
2018-08-13T05:56:22.791Z,979.87
2018-08-13T05:57:22.959Z,979.88
2018-08-13T05:58:23.130Z,979.85
2018-08-13T05:59:23.294Z,979.91
2018-08-13T06:00:23.464Z,979.87
2018-08-13T06:01:23.635Z,979.90
2018-08-13T06:02:23.809Z,979.91
2018-08-13T06:03:23.985Z,979.90
2018-08-13T06:04:24.149Z,979.86
2018-08-13T06:05:24.331Z,979.84
2018-08-13T06:06:24.498Z,979.85
2018-08-13T06:07:24.672Z,979.85
2018-08-13T06:08:24.850Z,979.89
2018-08-13T06:09:25.020Z,979.90
2018-08-13T06:10:25.186Z,979.84
2018-08-13T06:11:25.468Z,979.79
2018-08-13T06:12:25.524Z,979.77
2018-08-13T06:13:25.698Z,979.78
2018-08-13T06:14:25.870Z,979.75
2018-08-13T06:15:26.043Z,979.72
2018-08-13T06:16:26.214Z,979.71
2018-08-13T06:17:26.389Z,979.72
2018-08-13T06:18:26.560Z,979.74
2018-08-13T06:19:26.739Z,979.72
2018-08-13T06:20:26.907Z,979.70
2018-08-13T06:21:27.083Z,979.68
2018-08-13T06:22:27.250Z,979.72
2018-08-13T06:23:27.421Z,979.78
2018-08-13T06:24:27.592Z,979.82
2018-08-13T06:25:27.762Z,979.83
2018-08-13T06:26:27.938Z,979.92
2018-08-13T06:27:28.110Z,979.94
2018-08-13T06:28:28.279Z,979.99
2018-08-13T06:29:28.456Z,979.98
2018-08-13T06:30:28.628Z,979.98
2018-08-13T06:31:28.801Z,979.94
2018-08-13T06:32:28.987Z,979.94
2018-08-13T06:33:29.161Z,979.93
2018-08-13T06:34:29.336Z,979.96
2018-08-13T06:35:29.510Z,979.95
2018-08-13T06:36:29.696Z,979.91
2018-08-13T06:37:29.864Z,979.92
2018-08-13T06:38:30.032Z,979.90
2018-08-13T06:39:30.216Z,979.90
2018-08-13T06:40:30.399Z,979.84
2018-08-13T06:41:30.570Z,979.88
2018-08-13T06:42:30.735Z,979.91
2018-08-13T06:43:30.905Z,979.92
2018-08-13T06:44:31.079Z,979.98
2018-08-13T06:45:31.253Z,979.95
2018-08-13T06:46:31.430Z,979.98
2018-08-13T06:47:31.599Z,980.04
2018-08-13T06:48:31.793Z,980.10
2018-08-13T06:49:31.954Z,980.12
2018-08-13T06:50:32.130Z,980.06
2018-08-13T06:51:32.302Z,980.02
2018-08-13T06:52:32.473Z,980.01
2018-08-13T06:53:32.642Z,979.98
2018-08-13T06:54:32.820Z,979.95
2018-08-13T06:55:32.996Z,979.97
2018-08-13T06:56:33.168Z,979.94
2018-08-13T06:57:33.339Z,979.95
2018-08-13T06:58:33.513Z,979.87
2018-08-13T06:59:33.685Z,979.88
2018-08-13T07:00:33.857Z,979.89
2018-08-13T07:01:34.030Z,979.90
2018-08-13T07:02:34.204Z,979.91
2018-08-13T07:03:34.379Z,979.93
2018-08-13T07:04:34.548Z,979.94
2018-08-13T07:05:34.720Z,979.97
2018-08-13T07:06:34.906Z,980.01
2018-08-13T07:07:35.066Z,980.03
2018-08-13T07:08:35.237Z,980.00
2018-08-13T07:09:35.411Z,980.01
2018-08-13T07:10:35.578Z,980.01
2018-08-13T07:11:35.751Z,980.02
2018-08-13T07:12:35.931Z,980.07
2018-08-13T07:13:36.104Z,980.06
2018-08-13T07:17:40.937Z,980.20
2018-08-13T07:18:41.113Z,980.23
2018-08-13T07:19:41.283Z,980.14
2018-08-13T07:20:41.455Z,980.19
2018-08-13T07:21:41.639Z,980.14
2018-08-13T07:22:41.797Z,980.13
2018-08-13T07:23:41.972Z,980.11
2018-08-13T07:24:42.137Z,980.12
2018-08-13T07:25:42.307Z,980.15
2018-08-13T07:26:42.481Z,980.19
2018-08-13T07:27:42.704Z,980.24
2018-08-13T07:28:42.836Z,980.31
2018-08-13T07:29:43.011Z,980.48
2018-08-13T07:30:43.186Z,980.88
2018-08-13T07:31:43.358Z,981.53
2018-08-13T07:32:43.522Z,981.74
2018-08-13T07:33:43.768Z,981.74
2018-08-13T07:34:43.870Z,981.72
2018-08-13T07:35:44.043Z,981.75
2018-08-13T07:36:44.216Z,981.75
2018-08-13T07:37:44.394Z,981.91
2018-08-13T07:38:44.569Z,981.82
2018-08-13T07:39:44.743Z,981.89
2018-08-13T07:40:44.911Z,982.06
2018-08-13T07:41:45.089Z,982.10
2018-08-13T07:42:45.259Z,982.03
2018-08-13T07:43:45.421Z,981.93
2018-08-13T07:44:45.610Z,981.99
2018-08-13T07:45:45.895Z,982.01
2018-08-13T07:46:45.953Z,982.13
2018-08-13T07:47:46.132Z,982.18
2018-08-13T07:48:46.314Z,982.14
2018-08-13T07:49:46.496Z,982.20
2018-08-13T07:50:46.667Z,982.20
2018-08-13T07:51:46.902Z,982.16
2018-08-13T07:52:47.007Z,982.11
2018-08-13T07:53:47.210Z,982.10
2018-08-13T07:54:47.355Z,982.08
2018-08-13T07:55:47.528Z,982.14
2018-08-13T07:56:47.694Z,982.17
2018-08-13T07:57:47.866Z,982.18
2018-08-13T07:58:48.031Z,982.14
2018-08-13T07:59:48.226Z,982.15
2018-08-13T08:00:48.384Z,982.12
2018-08-13T08:01:48.543Z,982.07
2018-08-13T08:02:48.697Z,982.06
2018-08-13T08:03:48.903Z,982.21
2018-08-13T08:04:49.049Z,982.14
2018-08-13T08:05:49.234Z,982.06
2018-08-13T08:06:49.399Z,982.05
2018-08-13T08:07:49.567Z,981.98
2018-08-13T08:08:49.747Z,982.00
2018-08-13T08:09:49.927Z,982.03
2018-08-13T08:10:50.092Z,982.00
2018-08-13T08:11:50.253Z,982.05
2018-08-13T08:12:50.417Z,982.08
2018-08-13T08:13:50.607Z,982.14
2018-08-13T08:14:50.837Z,982.12
2018-08-13T08:15:50.948Z,982.16
2018-08-13T08:16:51.110Z,982.09
2018-08-13T08:17:51.281Z,982.03
2018-08-13T08:18:51.468Z,982.07
2018-08-13T08:19:51.641Z,982.11
2018-08-13T08:20:51.793Z,982.16
2018-08-13T08:21:51.961Z,982.12
2018-08-13T08:22:52.135Z,982.16
2018-08-13T08:23:52.314Z,982.16
2018-08-13T08:24:52.488Z,982.19
2018-08-13T08:25:52.662Z,982.14
2018-08-13T08:26:52.830Z,982.16
2018-08-13T08:27:53.017Z,982.14
2018-08-13T08:28:53.176Z,982.10
2018-08-13T08:29:53.349Z,982.07
2018-08-13T08:30:53.542Z,982.06
2018-08-13T08:31:53.692Z,982.02
2018-08-13T08:32:53.890Z,981.98
2018-08-13T08:33:54.067Z,981.94
2018-08-13T08:34:54.227Z,981.85
2018-08-13T08:35:54.426Z,981.84
2018-08-13T08:36:54.568Z,981.85
2018-08-13T08:37:54.734Z,981.78
2018-08-13T08:38:54.898Z,981.84
2018-08-13T08:39:55.074Z,981.90
2018-08-13T08:40:55.268Z,981.90
2018-08-13T08:41:55.433Z,981.86
2018-08-13T08:42:55.591Z,981.80
2018-08-13T08:43:55.793Z,981.75
2018-08-13T08:44:55.934Z,981.74
2018-08-13T08:45:56.168Z,981.64
2018-08-13T08:46:56.278Z,981.65
2018-08-13T08:47:56.444Z,981.72
2018-08-13T08:48:56.674Z,981.69
2018-08-13T08:49:56.814Z,981.68
2018-08-13T08:50:56.938Z,981.65
2018-08-13T08:51:57.122Z,981.64
2018-08-13T08:52:57.291Z,981.64
2018-08-13T08:53:57.476Z,981.68
2018-08-13T08:54:57.608Z,981.73
2018-08-13T08:55:57.787Z,981.69
2018-08-13T08:56:57.958Z,981.76
2018-08-13T08:57:58.159Z,981.74
2018-08-13T08:58:58.345Z,981.83
2018-08-13T08:59:58.530Z,981.76
2018-08-13T09:00:58.732Z,981.79
2018-08-13T09:01:58.890Z,981.80
2018-08-13T09:02:59.073Z,981.84
2018-08-13T09:03:59.255Z,981.81
2018-08-13T09:05:01.460Z,981.79
2018-08-13T09:05:59.620Z,981.79
2018-08-13T09:06:59.721Z,981.80
2018-08-13T09:07:59.908Z,981.81
2018-08-13T09:09:00.069Z,981.85
2018-08-13T09:10:00.237Z,981.83
2018-08-13T09:11:00.428Z,981.82
2018-08-13T09:12:00.595Z,981.91
2018-08-13T09:13:00.772Z,981.93
2018-08-13T09:14:00.937Z,981.94
2018-08-13T09:15:01.121Z,981.93
2018-08-13T09:16:01.389Z,981.95
2018-08-13T09:17:01.397Z,981.90
2018-08-13T09:18:01.573Z,981.84
2018-08-13T09:19:01.775Z,981.83
2018-08-13T09:20:02.740Z,981.72
2018-08-13T09:21:02.100Z,981.66
2018-08-13T09:22:02.294Z,981.62
2018-08-13T09:23:02.434Z,981.58
2018-08-13T09:24:02.627Z,981.59
2018-08-13T09:25:03.758Z,981.62
2018-08-13T09:26:02.949Z,981.72
2018-08-13T09:27:03.172Z,981.79
2018-08-13T09:28:03.328Z,981.81
2018-08-13T09:29:03.477Z,981.75
2018-08-13T09:30:03.729Z,981.77
2018-08-13T09:31:03.835Z,981.84
2018-08-13T09:32:04.009Z,981.88
2018-08-13T09:33:05.276Z,981.91
2018-08-13T09:34:04.352Z,981.91
2018-08-13T09:35:04.497Z,981.95
2018-08-13T09:36:04.657Z,981.90
2018-08-13T09:37:04.835Z,981.88
2018-08-13T09:38:06.250Z,981.83
2018-08-13T09:39:05.199Z,981.83
2018-08-13T09:40:05.451Z,981.82
2018-08-13T09:41:05.554Z,981.82
2018-08-13T09:42:05.723Z,981.84
2018-08-13T09:43:05.890Z,981.95
2018-08-13T09:44:06.054Z,981.95
2018-08-13T09:45:06.218Z,981.92
2018-08-13T09:46:06.384Z,981.87
2018-08-13T09:47:06.549Z,981.88
2018-08-13T09:48:07.263Z,981.88
2018-08-13T09:51:34.028Z,981.95
2018-08-13T09:52:34.202Z,981.96
2018-08-13T09:53:34.375Z,981.99
2018-08-13T09:54:34.561Z,982.02
2018-08-13T09:55:34.738Z,982.06
2018-08-13T09:56:34.914Z,982.07
2018-08-13T09:57:35.090Z,982.07
2018-08-13T09:58:35.258Z,982.06
2018-08-13T09:59:35.436Z,982.00
2018-08-13T10:00:35.611Z,981.95
2018-08-13T10:01:35.780Z,981.91
2018-08-13T10:02:35.945Z,981.90
2018-08-13T10:03:36.122Z,981.88
2018-08-13T10:04:36.333Z,981.90
2018-08-13T10:05:36.656Z,981.89
2018-08-13T10:06:36.702Z,981.94
2018-08-13T10:07:36.880Z,981.95
2018-08-13T10:08:37.058Z,981.91
2018-08-13T10:09:38.096Z,981.93
2018-08-13T10:10:37.388Z,981.93
2018-08-13T10:11:37.572Z,981.85
2018-08-13T10:12:37.784Z,981.80
2018-08-13T10:13:37.921Z,981.75
2018-08-13T10:14:38.104Z,981.68
2018-08-13T10:15:38.274Z,981.65
2018-08-13T10:16:38.458Z,981.63
2018-08-13T10:17:38.643Z,981.62
2018-08-13T10:18:38.803Z,981.64
2018-08-13T10:19:38.983Z,981.65
2018-08-13T10:20:39.148Z,981.71
2018-08-13T10:21:39.323Z,981.75
2018-08-13T10:22:39.497Z,981.70
2018-08-13T10:23:39.763Z,981.77
2018-08-13T10:24:39.804Z,981.82
2018-08-13T10:25:39.971Z,981.83
2018-08-13T10:26:40.149Z,981.89
2018-08-13T10:27:40.328Z,981.87
2018-08-13T10:28:40.505Z,981.91
2018-08-13T10:29:40.789Z,981.90
2018-08-13T10:30:40.841Z,981.95
2018-08-13T10:31:41.010Z,982.09
2018-08-13T10:32:41.189Z,982.08
2018-08-13T10:33:41.357Z,982.07
2018-08-13T10:34:41.522Z,982.05
2018-08-13T10:35:41.698Z,981.94
2018-08-13T10:36:42.529Z,981.87
2018-08-13T10:37:42.092Z,981.84
2018-08-13T10:38:42.261Z,981.76
2018-08-13T10:39:42.429Z,981.70
2018-08-13T10:40:42.601Z,981.65
2018-08-13T10:41:42.784Z,981.60
2018-08-13T10:42:42.958Z,981.59
2018-08-13T10:43:43.132Z,981.53
2018-08-13T10:44:43.324Z,981.53
2018-08-13T10:45:44.109Z,981.49
2018-08-13T10:46:43.658Z,981.44
2018-08-13T10:47:44.610Z,981.41
2018-08-13T10:48:44.044Z,981.38
2018-08-13T10:49:44.211Z,981.45
2018-08-13T10:50:44.387Z,981.51
2018-08-13T10:51:44.560Z,981.50
2018-08-13T10:52:44.730Z,981.43
2018-08-13T10:53:44.908Z,981.35
2018-08-13T10:54:45.083Z,981.20
2018-08-13T10:55:46.036Z,981.05
2018-08-13T10:56:45.446Z,981.03
2018-08-13T10:57:45.617Z,981.04
2018-08-13T10:58:45.799Z,981.11
2018-08-13T10:59:46.000Z,981.16
2018-08-13T11:00:46.147Z,981.20
2018-08-13T11:01:46.325Z,981.22
2018-08-13T11:02:46.496Z,981.22
2018-08-13T11:03:46.668Z,981.32
2018-08-13T11:04:46.848Z,981.35
2018-08-13T11:05:47.028Z,981.34
2018-08-13T11:06:47.204Z,981.35
2018-08-13T11:07:47.389Z,981.38
2018-08-13T11:08:47.569Z,981.46
2018-08-13T11:09:47.748Z,981.54
2018-08-13T11:10:48.129Z,981.58
2018-08-13T11:11:48.130Z,981.60
2018-08-13T11:12:48.307Z,981.60
2018-08-13T11:13:48.514Z,981.60
2018-08-13T11:14:48.654Z,981.63
2018-08-13T11:15:48.998Z,981.67
2018-08-13T11:16:48.999Z,981.68
2018-08-13T11:17:49.176Z,981.71
2018-08-13T11:18:50.121Z,981.67
2018-08-13T11:19:49.548Z,981.64
2018-08-13T11:20:49.844Z,981.66
2018-08-13T11:21:50.088Z,981.65
2018-08-13T11:22:50.059Z,981.63
2018-08-13T11:23:50.232Z,981.59
2018-08-13T11:24:50.404Z,981.59
2018-08-13T11:25:50.579Z,981.65
2018-08-13T11:26:50.750Z,981.73
2018-08-13T11:27:50.928Z,981.70
2018-08-13T11:28:51.102Z,981.62
2018-08-13T11:29:51.272Z,981.64
2018-08-13T11:30:51.452Z,981.61
2018-08-13T11:31:51.629Z,981.58
2018-08-13T11:32:51.812Z,981.58
2018-08-13T11:33:51.969Z,981.56
2018-08-13T11:34:52.246Z,981.55
2018-08-13T11:35:52.482Z,981.51
2018-08-13T11:36:52.495Z,981.53
2018-08-13T11:37:52.675Z,981.55
2018-08-13T11:38:52.849Z,981.59
2018-08-13T11:39:53.023Z,981.60
2018-08-13T11:40:53.200Z,981.57
2018-08-13T11:41:53.371Z,981.52
2018-08-13T11:42:53.551Z,981.48
2018-08-13T11:43:53.727Z,981.45
2018-08-13T11:44:54.890Z,981.46
2018-08-13T11:45:54.060Z,981.51
2018-08-13T11:46:54.228Z,981.53
2018-08-13T11:47:54.407Z,981.50
2018-08-13T11:48:54.653Z,981.51
2018-08-13T11:49:54.885Z,981.49
2018-08-13T11:50:54.928Z,981.53
2018-08-13T11:51:55.100Z,981.51
2018-08-13T11:52:55.280Z,981.54
2018-08-13T11:53:55.462Z,981.45
2018-08-13T11:54:55.627Z,981.48
2018-08-13T11:55:55.811Z,981.52
2018-08-13T11:56:55.995Z,981.53
2018-08-13T11:57:56.157Z,981.52
2018-08-13T11:58:56.355Z,981.47
2018-08-13T11:59:56.524Z,981.50
2018-08-13T12:00:56.725Z,981.49
2018-08-13T12:01:56.916Z,981.42
2018-08-13T12:02:57.067Z,981.48
2018-08-13T12:03:57.244Z,981.51
2018-08-13T12:04:57.419Z,981.57
2018-08-13T12:05:57.652Z,981.57
2018-08-13T12:06:57.779Z,981.59
2018-08-13T12:07:57.956Z,981.60
2018-08-13T12:08:58.126Z,981.55
2018-08-13T12:09:58.302Z,981.55
2018-08-13T12:10:58.486Z,981.53
2018-08-13T12:11:58.656Z,981.49
2018-08-13T12:12:58.827Z,981.44
2018-08-13T12:13:58.999Z,981.46
2018-08-13T12:14:59.176Z,981.45
2018-08-13T12:15:59.348Z,981.46
2018-08-13T12:16:59.527Z,981.50
2018-08-13T12:17:59.700Z,981.47
2018-08-13T12:18:59.875Z,981.47
2018-08-13T12:20:00.057Z,981.41
2018-08-13T12:21:00.225Z,981.41
2018-08-13T12:22:00.405Z,981.39
2018-08-13T12:23:00.575Z,981.35
2018-08-13T12:24:01.629Z,981.39
2018-08-13T12:25:00.920Z,981.40
2018-08-13T12:26:01.094Z,981.37
2018-08-13T12:27:02.131Z,981.33
2018-08-13T12:28:02.128Z,981.33
2018-08-13T12:29:01.552Z,981.34
2018-08-13T12:30:01.731Z,981.41
2018-08-13T12:31:01.901Z,981.49
2018-08-13T12:32:02.632Z,981.56
2018-08-13T12:33:02.307Z,981.47
2018-08-13T12:34:02.481Z,981.55
2018-08-13T12:35:02.655Z,981.62
2018-08-13T12:36:02.830Z,981.66